KGEY

South Big Horn County Airport

Greybull, Wyoming, USA
METAR KGEY 110153Z AUTO 00000KT 10SM CLR M07/M10 A3002 RMK AO2 SLP233 T10671100
Observed Flight Rules
Dec-11 @ 01:53 UTC (32 minutes ago) Visual Flight Rules
Visibility Clouds
10 miles
  • Clear skies
Temperatures Readings
Current -7°C / 19°F
Dewpoint -10°C / 14°F
Humidity 79%
Altimeter 30.02" Hg
Pressure 1023.3 hPa
Elevation 1191
METAR KGEY 110153Z AUTO 00000KT 10SM CLR M07/M10 A3002 RMK AO2 SLP233 T10671100
Observed Flight Rules
Dec-11 @ 01:53 UTC
(32 minutes ago)
VFR
Clouds
  • Clear skies
Temperature Dewpoint
-7°C / 19°F -10°C / 14°F
Humidity Altimeter Pressure
79% 30.02" Hg 1023.3 hPa